Main page
METAR-TAF:

METAR-TAF

Airports :

Dimapur Airport

Dimapur, India

latitude: 25-53-02N, longitude: 093-46-16E, elevation: 148 m

METAR: missing

Time: 05:51 (00:21 UTC)

Forecast

The report was made 4 hours and 21 minutes ago, at 20:00 UTC
Forecast valid from 11 at 21 UTC to 12 at 06 UTC
Wind kt from the North
Visibility: 2500 m
Few clouds at a height of 1600 ft
Scattered clouds at a height of 10000 ft
mist
Becoming
from 12 at 00 UTC to 12 at 01 UTC
Visibility: 1500 m
mist
Becoming
from 12 at 05 UTC to 12 at 06 UTC
Wind 5 kt from the East/Southeast
Visibility: 5000 m
Few clouds at a height of 2000 ft
haze

TAF: VEMR 112000Z 1121/1206 00000KT 2500 BR FEW016 SCT100 BECMG 1200/1201 1500 BR BECMG 1205/1206 11005KT 5000 HZ FEW020

Weather observations and forecasts of more than 4000 airports (METAR and TAF reports).

The available stations are represented by yellow and red dots on the map.

Hover mouse over dot to see the name of the station.

Then click to see weather observations and forecasts.

To change the map : click on the green buttons with a black cross to zoom in, on the green button with a dash to zoom out, or on the green arrows for adjacent maps.


METAR-TAF: